createdAt,value
2023-04-17T00:00:27.663Z,12.95
2023-04-17T00:02:07.405Z,12.95
2023-04-17T00:03:47.173Z,12.95
2023-04-17T00:05:26.990Z,12.95
2023-04-17T00:07:06.707Z,12.95
2023-04-17T00:08:46.469Z,12.95
2023-04-17T00:10:26.223Z,12.95
2023-04-17T00:12:05.983Z,12.94
2023-04-17T00:13:45.745Z,12.94
2023-04-17T00:15:25.539Z,12.94
2023-04-17T00:17:05.284Z,12.94
2023-04-17T00:18:45.059Z,12.94
2023-04-17T00:20:24.820Z,12.94
2023-04-17T00:22:04.576Z,12.95
2023-04-17T00:23:44.353Z,12.92
2023-04-17T00:25:24.088Z,12.93
2023-04-17T00:27:03.868Z,12.93
2023-04-17T00:28:43.631Z,12.93
2023-04-17T00:30:23.393Z,12.93
2023-04-17T00:32:03.157Z,12.93
2023-04-17T00:33:42.966Z,12.93
2023-04-17T00:35:22.683Z,12.93
2023-04-17T00:37:02.436Z,12.92
2023-04-17T00:38:42.209Z,12.92
2023-04-17T00:40:21.966Z,12.92
2023-04-17T00:42:01.751Z,12.91
2023-04-17T00:43:41.513Z,12.92
2023-04-17T00:45:21.293Z,12.92
2023-04-17T00:47:01.030Z,12.92
2023-04-17T00:48:40.803Z,12.91
2023-04-17T00:50:20.572Z,12.93
2023-04-17T00:52:00.339Z,12.91
2023-04-17T00:53:40.112Z,12.91
2023-04-17T00:55:19.861Z,12.91
2023-04-17T00:56:59.607Z,12.92
2023-04-17T00:58:39.383Z,12.92
2023-04-17T01:00:19.151Z,12.9
2023-04-17T01:01:58.903Z,12.92
2023-04-17T01:03:38.704Z,12.9
2023-04-17T01:05:18.445Z,12.9
2023-04-17T01:06:58.199Z,12.9
2023-04-17T01:08:37.965Z,12.91
2023-04-17T01:10:17.730Z,12.91
2023-04-17T01:11:57.501Z,12.91
2023-04-17T01:13:37.261Z,12.91
2023-04-17T01:15:17.019Z,12.91
2023-04-17T01:16:56.787Z,12.89
2023-04-17T01:18:36.548Z,12.89
2023-04-17T01:20:16.326Z,12.89
2023-04-17T01:21:56.082Z,12.89
2023-04-17T01:23:35.830Z,12.89
2023-04-17T01:25:15.595Z,12.9
2023-04-17T01:26:55.353Z,12.9
2023-04-17T01:28:35.120Z,12.88
2023-04-17T01:30:14.901Z,12.88
2023-04-17T01:31:54.656Z,12.89
2023-04-17T01:33:34.425Z,12.9
2023-04-17T01:35:14.178Z,12.88
2023-04-17T01:36:53.938Z,12.88
2023-04-17T01:38:33.711Z,12.88
2023-04-17T01:40:13.469Z,12.88
2023-04-17T01:41:53.231Z,12.88
2023-04-17T01:43:32.991Z,12.88
2023-04-17T01:45:12.777Z,12.88
2023-04-17T01:46:52.555Z,12.87
2023-04-17T01:48:32.295Z,12.87
2023-04-17T01:50:12.073Z,12.87
2023-04-17T01:51:51.817Z,12.87
2023-04-17T01:53:31.581Z,12.87
2023-04-17T01:55:11.340Z,12.87
2023-04-17T01:56:51.120Z,12.87
2023-04-17T01:58:30.878Z,12.87
2023-04-17T02:00:10.629Z,12.87
2023-04-17T02:01:50.385Z,12.87
2023-04-17T02:03:30.147Z,12.87
2023-04-17T02:05:09.940Z,12.85
2023-04-17T02:06:49.682Z,12.86
2023-04-17T02:08:29.445Z,12.86
2023-04-17T02:10:09.234Z,12.86
2023-04-17T02:11:48.992Z,12.86
2023-04-17T02:13:28.750Z,12.86
2023-04-17T02:15:08.523Z,12.86
2023-04-17T02:16:48.275Z,12.84
2023-04-17T02:18:28.044Z,12.84
2023-04-17T02:20:07.793Z,12.85
2023-04-17T02:21:47.558Z,12.85
2023-04-17T02:23:27.348Z,12.85
2023-04-17T02:25:07.099Z,12.85
2023-04-17T02:26:46.859Z,12.85
2023-04-17T02:28:26.622Z,12.84
2023-04-17T02:30:06.378Z,12.84
2023-04-17T02:31:46.143Z,12.84
2023-04-17T02:33:25.928Z,12.84
2023-04-17T02:35:05.687Z,12.84
2023-04-17T02:36:45.437Z,12.85
2023-04-17T02:38:25.209Z,12.84
2023-04-17T02:40:04.971Z,12.83
2023-04-17T02:41:44.744Z,12.81
2023-04-17T02:43:24.515Z,12.83
2023-04-17T02:45:04.266Z,12.83
2023-04-17T02:46:44.025Z,12.81
2023-04-17T02:48:23.782Z,12.82
2023-04-17T02:50:03.565Z,12.82
2023-04-17T02:51:43.322Z,12.82
2023-04-17T02:53:23.072Z,12.82
2023-04-17T02:55:02.847Z,12.82
2023-04-17T02:56:42.611Z,12.82
2023-04-17T02:58:22.358Z,12.82
2023-04-17T03:00:02.147Z,12.82
2023-04-17T03:01:41.916Z,12.81
2023-04-17T03:03:21.673Z,12.82
2023-04-17T03:05:01.438Z,12.82
2023-04-17T03:06:41.194Z,12.81
2023-04-17T03:08:20.969Z,12.81
2023-04-17T03:10:00.725Z,12.81
2023-04-17T03:11:40.489Z,12.81
2023-04-17T03:13:20.257Z,12.81
2023-04-17T03:15:00.036Z,12.8
2023-04-17T03:16:39.797Z,12.81
2023-04-17T03:18:19.548Z,12.81
2023-04-17T03:19:59.332Z,12.81
2023-04-17T03:21:39.073Z,12.81
2023-04-17T03:23:18.839Z,12.8
2023-04-17T03:24:58.596Z,12.8
2023-04-17T03:26:38.377Z,12.8
2023-04-17T03:28:18.122Z,12.8
2023-04-17T03:29:57.910Z,12.8
2023-04-17T03:31:37.653Z,12.8
2023-04-17T03:33:17.426Z,12.8
2023-04-17T03:34:57.182Z,12.8
2023-04-17T03:36:36.950Z,12.8
2023-04-17T03:38:16.714Z,12.8
2023-04-17T03:39:56.482Z,12.79
2023-04-17T03:41:36.231Z,12.79
2023-04-17T03:43:15.991Z,12.79
2023-04-17T03:44:55.775Z,12.79
2023-04-17T03:46:35.530Z,12.79
2023-04-17T03:48:15.292Z,12.79
2023-04-17T03:49:55.058Z,12.79
2023-04-17T03:51:34.822Z,12.79
2023-04-17T03:53:14.583Z,12.8
2023-04-17T03:54:54.347Z,12.79
2023-04-17T03:56:34.096Z,12.8
2023-04-17T03:58:13.880Z,12.8
2023-04-17T03:59:53.654Z,12.79
2023-04-17T04:01:33.412Z,12.79
2023-04-17T04:03:13.174Z,12.8
2023-04-17T04:04:52.918Z,12.81
2023-04-17T04:06:32.678Z,12.79
2023-04-17T04:08:12.455Z,12.8
2023-04-17T04:09:52.211Z,12.8
2023-04-17T04:11:31.982Z,12.8
2023-04-17T04:13:11.745Z,12.82
2023-04-17T04:14:51.506Z,12.81
2023-04-17T04:16:31.265Z,12.81
2023-04-17T04:18:11.047Z,12.82
2023-04-17T04:19:50.793Z,12.82
2023-04-17T04:21:30.574Z,12.82
2023-04-17T04:23:10.331Z,12.82
2023-04-17T04:24:50.090Z,12.83
2023-04-17T04:26:29.861Z,12.83
2023-04-17T04:28:09.626Z,12.84
2023-04-17T04:29:49.378Z,12.82
2023-04-17T04:31:29.159Z,12.85
2023-04-17T04:33:08.909Z,12.83
2023-04-17T04:34:48.726Z,12.84
2023-04-17T04:36:28.438Z,12.85
2023-04-17T04:38:08.280Z,12.85
2023-04-17T04:39:47.963Z,12.88
2023-04-17T04:41:27.733Z,12.86
2023-04-17T04:43:07.512Z,12.89
2023-04-17T04:44:47.246Z,12.89
2023-04-17T04:46:27.008Z,12.9
2023-04-17T04:48:06.788Z,12.9
2023-04-17T04:49:46.552Z,12.93
2023-04-17T04:51:26.311Z,12.94
2023-04-17T04:53:06.064Z,12.94
2023-04-17T04:54:45.855Z,12.96
2023-04-17T04:56:25.626Z,13
2023-04-17T04:58:05.372Z,13.02
2023-04-17T04:59:45.132Z,13.03
2023-04-17T05:01:24.901Z,13.07
2023-04-17T05:03:04.663Z,13.09
2023-04-17T05:04:44.424Z,13.13
2023-04-17T05:06:24.198Z,13.21
2023-04-17T05:08:03.945Z,13.25
2023-04-17T05:09:43.728Z,13.31
2023-04-17T05:11:23.484Z,13.39
2023-04-17T05:13:03.237Z,13.48
2023-04-17T05:14:43.009Z,13.56
2023-04-17T05:16:22.774Z,13.6
2023-04-17T05:18:02.536Z,13.68
2023-04-17T05:19:42.325Z,13.75
2023-04-17T05:21:22.089Z,13.82
2023-04-17T05:23:01.818Z,13.88
2023-04-17T05:24:41.588Z,13.95
2023-04-17T05:26:21.369Z,14.14
2023-04-17T05:28:01.133Z,14.16
2023-04-17T05:29:40.871Z,14.24
2023-04-17T05:31:20.646Z,14.2
2023-04-17T05:33:00.420Z,14.21
2023-04-17T05:34:40.173Z,14.23
2023-04-17T05:36:19.936Z,14.24
2023-04-17T05:37:59.704Z,14.17
2023-04-17T05:39:39.455Z,14.1
2023-04-17T05:41:19.284Z,14.05
2023-04-17T05:42:58.989Z,14.08
2023-04-17T05:44:38.745Z,14.14
2023-04-17T05:46:18.522Z,14.19
2023-04-17T05:47:58.289Z,14.19
2023-04-17T05:49:38.085Z,14.13
2023-04-17T05:51:17.887Z,14.1
2023-04-17T05:52:57.569Z,14.13
2023-04-17T05:54:37.426Z,14.17
2023-04-17T05:56:17.208Z,14.18
2023-04-17T05:57:56.870Z,14.17
2023-04-17T05:59:36.657Z,14.17
2023-04-17T06:01:16.500Z,14.14
2023-04-17T06:02:56.267Z,14.14
2023-04-17T06:04:35.979Z,14.15
2023-04-17T06:06:15.687Z,14.18
2023-04-17T06:07:55.455Z,14.26
2023-04-17T06:09:35.218Z,14.15
2023-04-17T06:11:15.002Z,14.19
2023-04-17T06:12:54.760Z,14.19
2023-04-17T06:14:34.527Z,14.21
2023-04-17T06:16:14.318Z,14.24
2023-04-17T06:17:54.057Z,14.24
2023-04-17T06:19:33.796Z,14.29
2023-04-17T06:21:13.611Z,14.27
2023-04-17T06:22:53.328Z,14.31
2023-04-17T06:24:33.132Z,14.33
2023-04-17T06:26:12.882Z,14.27
2023-04-17T06:27:52.633Z,14.82
2023-04-17T06:29:32.479Z,14.72
2023-04-17T06:31:12.155Z,14.66
2023-04-17T06:32:51.942Z,14.81
2023-04-17T06:34:31.678Z,14.67
2023-04-17T06:36:11.448Z,14.7
2023-04-17T06:37:51.220Z,14.77
2023-04-17T06:39:30.986Z,14.81
2023-04-17T06:41:10.807Z,14.71
2023-04-17T06:42:50.496Z,14.69
2023-04-17T06:44:30.265Z,14.77
2023-04-17T06:46:10.107Z,14.69
2023-04-17T06:47:49.791Z,14.74
2023-04-17T06:49:29.589Z,14.69
2023-04-17T06:51:09.339Z,14.65
2023-04-17T06:52:49.094Z,14.68
2023-04-17T06:54:28.873Z,14.75
2023-04-17T06:56:08.609Z,14.74
2023-04-17T06:57:48.463Z,14.7
2023-04-17T06:59:28.141Z,14.69
2023-04-17T07:01:08.058Z,14.81
2023-04-17T07:02:47.657Z,14.78
2023-04-17T07:04:27.439Z,14.69
2023-04-17T07:06:07.201Z,14.72
2023-04-17T07:07:46.955Z,14.71
2023-04-17T07:09:26.722Z,14.65
2023-04-17T07:11:06.471Z,14.74
2023-04-17T07:12:46.255Z,14.72
2023-04-17T07:14:26.067Z,14.73
2023-04-17T07:16:05.809Z,14.77
2023-04-17T07:17:45.541Z,14.66
2023-04-17T07:19:25.289Z,14.78
2023-04-17T07:21:05.073Z,14.67
2023-04-17T07:22:44.840Z,14.66
2023-04-17T07:24:24.591Z,14.77
2023-04-17T07:26:04.366Z,14.76
2023-04-17T07:27:44.135Z,14.74
2023-04-17T07:29:23.880Z,14.66
2023-04-17T07:31:03.660Z,14.63
2023-04-17T07:32:43.428Z,14.65
2023-04-17T07:34:23.175Z,14.66
2023-04-17T07:36:02.944Z,14.68
2023-04-17T07:37:42.705Z,14.66
2023-04-17T07:39:22.491Z,14.7
2023-04-17T07:41:02.222Z,14.73
2023-04-17T07:42:42.002Z,14.66
2023-04-17T07:44:21.788Z,14.71
2023-04-17T07:46:01.515Z,14.76
2023-04-17T07:47:41.278Z,14.77
2023-04-17T07:49:21.097Z,14.78
2023-04-17T07:51:00.825Z,14.66
2023-04-17T07:52:40.587Z,14.67
2023-04-17T07:54:20.368Z,14.7
2023-04-17T07:56:00.119Z,14.74
2023-04-17T07:57:39.872Z,14.75
2023-04-17T07:59:19.781Z,14.64
2023-04-17T08:00:59.498Z,14.68
2023-04-17T08:02:39.155Z,14.71
2023-04-17T08:04:19.108Z,14.69
2023-04-17T08:05:58.673Z,14.77
2023-04-17T08:07:38.456Z,14.66
2023-04-17T08:09:18.228Z,14.64
2023-04-17T08:10:58.000Z,14.66
2023-04-17T08:12:37.749Z,14.67
2023-04-17T08:14:17.508Z,14.7
2023-04-17T08:15:57.259Z,14.71
2023-04-17T08:17:37.039Z,14.7
2023-04-17T08:19:16.802Z,14.74
2023-04-17T08:20:56.639Z,14.66
2023-04-17T08:22:36.426Z,14.63
2023-04-17T08:24:16.086Z,14.66
2023-04-17T08:25:55.868Z,14.66
2023-04-17T08:27:35.620Z,14.12
2023-04-17T08:29:15.384Z,14.01
2023-04-17T08:30:55.153Z,14.11
2023-04-17T08:32:34.914Z,14.16
2023-04-17T08:34:14.684Z,14.11
2023-04-17T08:35:54.445Z,14.1
2023-04-17T08:37:34.205Z,14.09
2023-04-17T08:39:13.958Z,14.09
2023-04-17T08:40:53.723Z,14.11
2023-04-17T08:42:33.660Z,14.16
2023-04-17T08:44:13.390Z,14.07
2023-04-17T08:45:53.179Z,14.03
2023-04-17T08:47:32.803Z,14.04
2023-04-17T08:49:12.673Z,14.05
2023-04-17T08:50:52.358Z,14.08
2023-04-17T08:52:32.080Z,14.12
2023-04-17T08:54:11.850Z,14.15
2023-04-17T08:55:51.616Z,14.01
2023-04-17T08:57:31.376Z,14.04
2023-04-17T08:59:11.135Z,14.04
2023-04-17T09:00:50.910Z,14.02
2023-04-17T09:02:30.663Z,14.03
2023-04-17T09:04:10.427Z,14.05
2023-04-17T09:05:50.183Z,14.05
2023-04-17T09:07:30.159Z,14.05
2023-04-17T09:09:09.731Z,14.1
2023-04-17T09:10:49.496Z,14.12
2023-04-17T09:12:29.281Z,14.07
2023-04-17T09:14:08.995Z,14.1
2023-04-17T09:15:48.759Z,14.13
2023-04-17T09:17:28.551Z,14.08
2023-04-17T09:19:08.295Z,14.06
2023-04-17T09:20:48.064Z,14.05
2023-04-17T09:22:27.841Z,14.01
2023-04-17T09:24:07.649Z,14.04
2023-04-17T09:25:47.391Z,14.13
2023-04-17T09:27:27.169Z,14.04
2023-04-17T09:29:06.872Z,14.13
2023-04-17T09:30:46.656Z,14.15
2023-04-17T09:32:26.419Z,14.06
2023-04-17T09:34:06.178Z,14.07
2023-04-17T09:35:45.937Z,14.02
2023-04-17T09:37:25.707Z,14.01
2023-04-17T09:39:05.473Z,14.01
2023-04-17T09:40:45.224Z,14.05
2023-04-17T09:42:24.988Z,14.07
2023-04-17T09:44:04.778Z,14.02
2023-04-17T09:45:44.548Z,14.02
2023-04-17T09:47:24.279Z,14.13
2023-04-17T09:49:04.208Z,14.02
2023-04-17T09:50:44.005Z,14.15
2023-04-17T09:52:23.607Z,14.1
2023-04-17T09:54:03.324Z,14.09
2023-04-17T09:55:43.098Z,14.05
2023-04-17T09:57:22.867Z,14
2023-04-17T09:59:02.674Z,14.06
2023-04-17T10:00:42.535Z,14.12
2023-04-17T10:02:22.252Z,14.17
2023-04-17T10:04:01.991Z,14.03
2023-04-17T10:05:41.684Z,14.1
2023-04-17T10:07:21.455Z,14.15
2023-04-17T10:09:01.228Z,14.06
2023-04-17T10:10:40.979Z,14.08
2023-04-17T10:12:20.741Z,14.08
2023-04-17T10:14:00.522Z,14.05
2023-04-17T10:15:40.279Z,14
2023-04-17T10:17:20.025Z,14.09
2023-04-17T10:18:59.790Z,14.02
2023-04-17T10:20:39.552Z,14.04
2023-04-17T10:22:19.320Z,14.03
2023-04-17T10:23:59.084Z,14.03
2023-04-17T10:25:38.854Z,14
2023-04-17T10:27:18.703Z,14.05
2023-04-17T10:28:58.503Z,14.15
2023-04-17T10:30:38.160Z,14.09
2023-04-17T10:32:17.904Z,14.12
2023-04-17T10:33:57.676Z,14.02
2023-04-17T10:35:37.429Z,14.18
2023-04-17T10:37:17.202Z,14.15
2023-04-17T10:38:57.058Z,14.06
2023-04-17T10:40:36.903Z,14.18
2023-04-17T10:42:16.720Z,14.03
2023-04-17T10:43:56.476Z,14.02
2023-04-17T10:45:36.157Z,14.03
2023-04-17T10:47:16.003Z,14.13
2023-04-17T10:48:55.771Z,13.98
2023-04-17T10:50:35.469Z,13.98
2023-04-17T10:52:15.201Z,14.12
2023-04-17T10:53:55.000Z,14.08
2023-04-17T10:55:34.601Z,14.16
2023-04-17T10:57:14.366Z,14.05
2023-04-17T10:58:54.310Z,14.06
2023-04-17T11:00:34.061Z,14.01
2023-04-17T11:02:13.722Z,14.01
2023-04-17T11:03:53.543Z,14.04
2023-04-17T11:05:33.319Z,14.1
2023-04-17T11:07:13.095Z,14.02
2023-04-17T11:08:52.822Z,14.02
2023-04-17T11:10:32.645Z,13.99
2023-04-17T11:12:12.326Z,14.13
2023-04-17T11:13:52.118Z,14.03
2023-04-17T11:15:31.938Z,14.02
2023-04-17T11:17:11.680Z,14.01
2023-04-17T11:18:51.479Z,14.02
2023-04-17T11:20:31.179Z,14.05
2023-04-17T11:22:11.025Z,14.02
2023-04-17T11:23:50.768Z,14.01
2023-04-17T11:25:30.368Z,14.05
2023-04-17T11:27:10.256Z,14
2023-04-17T11:28:50.064Z,14.11
2023-04-17T11:30:29.830Z,14.08
2023-04-17T11:32:09.466Z,14.09
2023-04-17T11:33:49.189Z,14.07
2023-04-17T11:35:28.950Z,14.11
2023-04-17T11:37:08.696Z,14.08
2023-04-17T11:38:48.492Z,14.02
2023-04-17T11:40:28.239Z,14.06
2023-04-17T11:42:08.035Z,14.11
2023-04-17T11:45:27.522Z,14.02
2023-04-17T11:47:07.290Z,14.09
2023-04-17T11:48:47.062Z,14
2023-04-17T11:50:26.818Z,14.09
2023-04-17T11:52:06.573Z,14.07
2023-04-17T11:53:46.340Z,14.18
2023-04-17T11:55:26.121Z,14.06
2023-04-17T11:57:05.874Z,14.07
2023-04-17T11:58:45.638Z,14.08
2023-04-17T12:00:25.425Z,14.03
2023-04-17T12:02:05.162Z,14.03
2023-04-17T12:03:44.939Z,14.01
2023-04-17T12:05:24.702Z,13.96
2023-04-17T12:07:04.455Z,14.11
2023-04-17T12:08:44.227Z,13.99
2023-04-17T12:10:23.983Z,14.02
2023-04-17T12:12:03.737Z,14.03
2023-04-17T12:13:43.514Z,14.02
2023-04-17T12:15:23.275Z,14.02
2023-04-17T12:17:03.042Z,14.02
2023-04-17T12:18:42.793Z,13.99
2023-04-17T12:20:22.564Z,14.06
2023-04-17T12:22:02.329Z,14.14
2023-04-17T12:23:42.096Z,14.12
2023-04-17T12:25:21.859Z,14
2023-04-17T12:27:01.626Z,14.06
2023-04-17T12:28:41.408Z,13.99
2023-04-17T12:30:21.226Z,14.01
2023-04-17T12:32:00.912Z,13.95
2023-04-17T12:33:40.697Z,14.03
2023-04-17T12:35:20.436Z,14.03
2023-04-17T12:37:00.212Z,14.09
2023-04-17T12:38:40.017Z,14.13
2023-04-17T12:40:19.746Z,14.06
2023-04-17T12:41:59.495Z,14.13
2023-04-17T12:43:39.298Z,14.04
2023-04-17T12:45:19.031Z,14.07
2023-04-17T12:46:58.828Z,14.07
2023-04-17T12:48:38.540Z,14.06
2023-04-17T12:50:18.383Z,14.04
2023-04-17T12:51:58.083Z,14.06
2023-04-17T12:53:37.851Z,14.04
2023-04-17T12:55:17.612Z,14.04
2023-04-17T12:56:57.380Z,14.04
2023-04-17T12:58:37.139Z,14.09
2023-04-17T13:00:16.949Z,14.03
2023-04-17T13:01:56.660Z,14.06
2023-04-17T13:03:36.437Z,14.05
2023-04-17T13:05:16.195Z,14.08
2023-04-17T13:06:55.956Z,14.09
2023-04-17T13:08:35.714Z,14.09
2023-04-17T13:10:15.478Z,14.08
2023-04-17T13:11:55.246Z,14.09
2023-04-17T13:13:35.026Z,14.06
2023-04-17T13:15:14.782Z,14.07
2023-04-17T13:16:54.527Z,14.09
2023-04-17T13:18:34.309Z,14.06
2023-04-17T13:20:14.110Z,14.05
2023-04-17T13:21:53.841Z,14.09
2023-04-17T13:23:33.590Z,14.12
2023-04-17T13:25:13.359Z,14.07
2023-04-17T13:26:53.130Z,14.1
2023-04-17T13:28:32.898Z,14.12
2023-04-17T13:30:12.654Z,14.13
2023-04-17T13:31:52.419Z,14.1
2023-04-17T13:33:32.182Z,14.14
2023-04-17T13:35:11.949Z,14.12
2023-04-17T13:36:51.707Z,14.14
2023-04-17T13:38:31.460Z,14.13
2023-04-17T13:40:11.243Z,14.11
2023-04-17T13:41:50.989Z,14.12
2023-04-17T13:43:30.750Z,14.16
2023-04-17T13:45:10.538Z,14.12
2023-04-17T13:46:50.279Z,14.18
2023-04-17T13:48:30.076Z,14.16
2023-04-17T13:50:09.833Z,14.13
2023-04-17T13:51:49.574Z,14.16
2023-04-17T13:53:29.353Z,14.12
2023-04-17T13:55:09.106Z,14.1
2023-04-17T13:56:48.933Z,14.05
2023-04-17T13:58:28.666Z,14.13
2023-04-17T14:00:08.396Z,14.03
2023-04-17T14:01:48.176Z,14.07
2023-04-17T14:03:27.933Z,14.15
2023-04-17T14:05:07.707Z,14.09
2023-04-17T14:06:47.531Z,14.12
2023-04-17T14:08:27.220Z,14.05
2023-04-17T14:10:06.998Z,14.14
2023-04-17T14:11:46.788Z,14
2023-04-17T14:13:26.515Z,14.16
2023-04-17T14:15:06.303Z,13.99
2023-04-17T14:16:46.040Z,14.14
2023-04-17T14:18:25.800Z,14.18
2023-04-17T14:20:05.563Z,14.16
2023-04-17T14:21:45.329Z,14.14
2023-04-17T14:23:25.107Z,14.05
2023-04-17T14:25:04.866Z,14.13
2023-04-17T14:26:44.640Z,14.14
2023-04-17T14:28:24.419Z,14.04
2023-04-17T14:30:04.194Z,14.13
2023-04-17T14:31:43.927Z,14
2023-04-17T14:33:23.679Z,14.04
2023-04-17T14:35:03.435Z,14.1
2023-04-17T14:36:43.257Z,14.16
2023-04-17T14:38:22.968Z,14.02
2023-04-17T14:40:02.738Z,14.16
2023-04-17T14:41:42.557Z,14.07
2023-04-17T14:43:22.326Z,14.19
2023-04-17T14:45:02.028Z,14.14
2023-04-17T14:46:41.785Z,14
2023-04-17T14:48:21.558Z,14.17
2023-04-17T14:50:01.314Z,14.07
2023-04-17T14:51:41.261Z,14.1
2023-04-17T14:53:20.861Z,14.18
2023-04-17T14:55:00.681Z,14.1
2023-04-17T14:56:40.383Z,14.21
2023-04-17T14:58:20.132Z,14.21
2023-04-17T14:59:59.922Z,14.04
2023-04-17T15:01:39.679Z,14.19
2023-04-17T15:03:19.432Z,14.04
2023-04-17T15:04:59.184Z,14.22
2023-04-17T15:06:38.962Z,14.11
2023-04-17T15:08:18.706Z,14.03
2023-04-17T15:09:58.531Z,14.02
2023-04-17T15:11:38.240Z,14.19
2023-04-17T15:13:18.032Z,14.19
2023-04-17T15:14:57.781Z,14.21
2023-04-17T15:16:37.528Z,14.23
2023-04-17T15:18:17.314Z,14.24
2023-04-17T15:19:57.120Z,14.09
2023-04-17T15:21:36.828Z,14.12
2023-04-17T15:23:16.606Z,14.1
2023-04-17T15:24:56.360Z,14.13
2023-04-17T15:26:36.124Z,14.02
2023-04-17T15:28:15.894Z,14.21
2023-04-17T15:29:55.683Z,14
2023-04-17T15:31:35.464Z,14.2
2023-04-17T15:33:15.183Z,14.22
2023-04-17T15:34:54.931Z,14.07
2023-04-17T15:36:34.709Z,14.16
2023-04-17T15:38:14.471Z,14.2
2023-04-17T15:39:54.239Z,14.13
2023-04-17T15:41:33.993Z,14.22
2023-04-17T15:43:13.767Z,14.1
2023-04-17T15:44:53.515Z,14.13
2023-04-17T15:46:33.296Z,14.18
2023-04-17T15:48:13.083Z,14.09
2023-04-17T15:49:52.824Z,14.17
2023-04-17T15:51:32.579Z,14.11
2023-04-17T15:53:12.342Z,14.15
2023-04-17T15:54:52.110Z,14.03
2023-04-17T15:56:31.870Z,14.17
2023-04-17T15:58:11.690Z,14.12
2023-04-17T15:59:51.448Z,14.18
2023-04-17T16:01:31.157Z,14.19
2023-04-17T16:03:10.921Z,14.16
2023-04-17T16:04:50.683Z,14.03
2023-04-17T16:06:30.448Z,14.2
2023-04-17T16:08:10.213Z,14.19
2023-04-17T16:09:49.963Z,14.19
2023-04-17T16:11:29.746Z,14.19
2023-04-17T16:13:09.544Z,14.19
2023-04-17T16:14:49.344Z,14.05
2023-04-17T16:16:29.028Z,14.24
2023-04-17T16:18:08.797Z,14.16
2023-04-17T16:19:48.582Z,14.15
2023-04-17T16:21:28.354Z,14.24
2023-04-17T16:23:08.089Z,14.03
2023-04-17T16:24:47.868Z,14.13
2023-04-17T16:26:27.667Z,14.21
2023-04-17T16:28:07.389Z,14.12
2023-04-17T16:29:47.165Z,14.23
2023-04-17T16:31:26.968Z,14.14
2023-04-17T16:33:06.689Z,14.02
2023-04-17T16:34:46.448Z,14.01
2023-04-17T16:36:26.195Z,14.06
2023-04-17T16:38:05.982Z,14.05
2023-04-17T16:39:45.741Z,14.02
2023-04-17T16:41:25.499Z,13.95
2023-04-17T16:43:05.249Z,13.47
2023-04-17T16:44:45.019Z,13.41
2023-04-17T16:46:24.783Z,13.38
2023-04-17T16:48:04.553Z,13.31
2023-04-17T16:49:44.321Z,13.3
2023-04-17T16:51:24.081Z,13.26
2023-04-17T16:53:03.846Z,13.24
2023-04-17T16:54:43.651Z,13.24
2023-04-17T16:56:23.384Z,13.21
2023-04-17T16:58:03.153Z,13.21
2023-04-17T16:59:42.971Z,13.2
2023-04-17T17:01:22.730Z,13.22
2023-04-17T17:03:02.470Z,13.19
2023-04-17T17:04:42.204Z,13.21
2023-04-17T17:06:21.953Z,13.21
2023-04-17T17:08:01.787Z,13.2
2023-04-17T17:09:41.496Z,13.19
2023-04-17T17:11:21.282Z,13.22
2023-04-17T17:13:00.995Z,13.21
2023-04-17T17:14:40.764Z,13.19
2023-04-17T17:16:20.545Z,13.18
2023-04-17T17:18:00.305Z,13.21
2023-04-17T17:19:40.149Z,13.21
2023-04-17T17:21:19.823Z,13.19
2023-04-17T17:22:59.624Z,13.18
2023-04-17T17:24:39.365Z,13.19
2023-04-17T17:26:19.147Z,13.19
2023-04-17T17:27:58.936Z,13.18
2023-04-17T17:29:38.654Z,13.17
2023-04-17T17:31:18.475Z,13.16
2023-04-17T17:32:58.179Z,13.15
2023-04-17T17:34:37.939Z,13.14
2023-04-17T17:36:17.720Z,13.14
2023-04-17T17:37:57.475Z,13.14
2023-04-17T17:39:37.226Z,13.14
2023-04-17T17:41:16.985Z,13.13
2023-04-17T17:42:56.763Z,13.13
2023-04-17T17:44:36.522Z,13.11
2023-04-17T17:46:16.282Z,13.11
2023-04-17T17:47:56.063Z,13.11
2023-04-17T17:49:35.871Z,13.1
2023-04-17T17:51:15.584Z,13.1
2023-04-17T17:52:55.337Z,13.1
2023-04-17T17:54:35.108Z,13.1
2023-04-17T17:56:14.867Z,13.09
2023-04-17T17:57:54.635Z,13.09
2023-04-17T17:59:34.580Z,13.09
2023-04-17T18:01:14.146Z,13.09
2023-04-17T18:02:53.927Z,13.08
2023-04-17T18:04:33.679Z,13.09
2023-04-17T18:06:13.449Z,13.08
2023-04-17T18:07:53.217Z,13.06
2023-04-17T18:09:32.989Z,13.06
2023-04-17T18:11:12.746Z,13.08
2023-04-17T18:12:52.500Z,13.08
2023-04-17T18:14:32.351Z,13.08
2023-04-17T18:16:12.035Z,13.08
2023-04-17T18:17:51.811Z,13.07
2023-04-17T18:19:31.564Z,13.07
2023-04-17T18:21:11.326Z,13.07
2023-04-17T18:22:51.130Z,13.08
2023-04-17T18:24:30.848Z,13.05
2023-04-17T18:26:10.614Z,13.07
2023-04-17T18:27:50.411Z,13.07
2023-04-17T18:29:30.143Z,13.07
2023-04-17T18:31:09.898Z,13.07
2023-04-17T18:32:49.689Z,13.05
2023-04-17T18:34:29.542Z,13.07
2023-04-17T18:36:09.203Z,13.07
2023-04-17T18:37:48.962Z,13.06
2023-04-17T18:39:28.733Z,13.06
2023-04-17T18:41:08.511Z,13.06
2023-04-17T18:42:48.256Z,13.06
2023-04-17T18:44:28.025Z,13.06
2023-04-17T18:46:07.779Z,13.06
2023-04-17T18:47:47.548Z,13.06
2023-04-17T18:49:27.343Z,13.06
2023-04-17T18:51:07.071Z,13.06
2023-04-17T18:52:46.845Z,13.06
2023-04-17T18:54:26.608Z,13.05
2023-04-17T18:56:06.464Z,13.05
2023-04-17T18:57:46.124Z,13.05
2023-04-17T18:59:25.908Z,13.05
2023-04-17T19:01:05.660Z,13.05
2023-04-17T19:02:45.434Z,13.05
2023-04-17T19:04:25.213Z,13.05
2023-04-17T19:06:04.957Z,13.05
2023-04-17T19:07:44.721Z,13.05
2023-04-17T19:09:24.490Z,13.05
2023-04-17T19:11:04.239Z,13.05
2023-04-17T19:12:44.006Z,13.05
2023-04-17T19:14:23.757Z,13.03
2023-04-17T19:16:03.533Z,13.05
2023-04-17T19:17:43.296Z,13.05
2023-04-17T19:19:23.078Z,13.05
2023-04-17T19:21:02.835Z,13.05
2023-04-17T19:22:42.593Z,13.05
2023-04-17T19:24:22.356Z,13.05
2023-04-17T19:26:02.127Z,13.05
2023-04-17T19:27:41.928Z,13.03
2023-04-17T19:29:21.650Z,13.05
2023-04-17T19:31:01.419Z,13.04
2023-04-17T19:32:41.163Z,13.04
2023-04-17T19:34:20.932Z,13.04
2023-04-17T19:36:00.710Z,13.04
2023-04-17T19:37:40.536Z,13.04
2023-04-17T19:39:20.253Z,13.04
2023-04-17T19:41:00.095Z,13.04
2023-04-17T19:42:39.777Z,13.04
2023-04-17T19:44:19.584Z,13.04
2023-04-17T19:45:59.273Z,13.04
2023-04-17T19:47:39.049Z,13.03
2023-04-17T19:49:18.832Z,13.03
2023-04-17T19:50:58.592Z,13.03
2023-04-17T19:52:38.344Z,13.03
2023-04-17T19:54:18.120Z,13.03
2023-04-17T19:55:57.877Z,13.03
2023-04-17T19:57:37.631Z,13.03
2023-04-17T19:59:17.411Z,13.03
2023-04-17T20:00:57.151Z,13.03
2023-04-17T20:02:36.904Z,13.03
2023-04-17T20:04:16.685Z,13.03
2023-04-17T20:05:56.440Z,13.03
2023-04-17T20:07:36.198Z,13.03
2023-04-17T20:09:15.995Z,13.03
2023-04-17T20:10:55.746Z,13.03
2023-04-17T20:12:35.519Z,13.03
2023-04-17T20:14:15.259Z,13.03
2023-04-17T20:15:55.041Z,13.03
2023-04-17T20:17:34.789Z,13.03
2023-04-17T20:19:15.625Z,13.03
2023-04-17T20:20:54.318Z,13.03
2023-04-17T20:22:34.096Z,13.03
2023-04-17T20:24:13.857Z,13.03
2023-04-17T20:25:53.639Z,13.03
2023-04-17T20:27:33.373Z,13.03
2023-04-17T20:29:13.170Z,13.03
2023-04-17T20:30:52.915Z,13.02
2023-04-17T20:32:32.669Z,13.03
2023-04-17T20:34:12.421Z,13.02
2023-04-17T20:35:52.194Z,13.02
2023-04-17T20:37:31.968Z,13.02
2023-04-17T20:39:11.719Z,13.02
2023-04-17T20:40:51.478Z,13.02
2023-04-17T20:42:31.260Z,13.02
2023-04-17T20:44:11.047Z,13.02
2023-04-17T20:45:50.777Z,13.02
2023-04-17T20:47:30.544Z,13.02
2023-04-17T20:49:10.309Z,13.03
2023-04-17T20:50:50.073Z,13.03
2023-04-17T20:52:29.834Z,13.02
2023-04-17T20:54:09.595Z,13.01
2023-04-17T20:55:49.359Z,13.02
2023-04-17T20:57:29.130Z,13.02
2023-04-17T20:59:08.879Z,13.02
2023-04-17T21:00:48.642Z,13.01
2023-04-17T21:02:28.421Z,13.01
2023-04-17T21:04:08.166Z,13.01
2023-04-17T21:05:47.942Z,13.01
2023-04-17T21:07:27.695Z,13.01
2023-04-17T21:09:07.481Z,13.01
2023-04-17T21:10:47.241Z,13.01
2023-04-17T21:12:26.989Z,13.01
2023-04-17T21:14:06.783Z,13.01
2023-04-17T21:15:46.519Z,13.02
2023-04-17T21:17:26.325Z,13.01
2023-04-17T21:19:06.049Z,13.01
2023-04-17T21:20:45.808Z,13
2023-04-17T21:22:25.588Z,13
2023-04-17T21:24:05.362Z,13
2023-04-17T21:25:45.105Z,13
2023-04-17T21:27:24.866Z,13.01
2023-04-17T21:29:04.641Z,13.01
2023-04-17T21:30:44.394Z,13.01
2023-04-17T21:32:24.174Z,13.01